Terminal Aerodrome Forecast
Issued by NWS Dodge City, KS

Home | Current Version | Previous Version | Text Only | Print | Product List | Glossary On
Versions: 1 2 3 4 5 6 7 8 9 10 11 12 13 14 15 16
000
FTUS43 KDDC 290240 AAB
TAFDDC
TAF AMD
KDDC 290240Z 2903/2924 01014G22KT 5SM RA SCT006 BKN009
     FM291500 01022G30KT 3SM -RA OVC003=

USA.gov is the U.S. government's official web portal to all federal, state and local government web resources and services.